Accueil
METAR-TAF:

METAR-TAF

Aéroports :

Aéroport international de Nội Bài

Hanoï, Viêtnam

latitude: 21-01N, longitude: 105-48E, altitude: 6 m

Observation

Le bulletin a été fait il y a 44 minutes, à 18:30 UTC
Vent 4 kt de est
Température 25°C
Humidité 100%
Pression 1009 hPa
Visibilité: 9000 m
Quelques nuages à une hauteur de 1900 ft

METAR: VVNB 071830Z 08004KT 9000 FEW019 25/25 Q1009 NOSIG

Heure: 02:14 (19:14 UTC)

Prévision

Le bulletin a été fait il y a 2 heures et 14 minutes, à 17:00 UTC
Prévision valable du 07 à 18 UTC au 08 à 18 UTC
Vent 7 kt de est/sud-est
Visibilité: 6000 m
Nuages épars à une hauteur de 2500 ft
Evoluant progressivement
du 07 à 22 UTC au 07 à 23 UTC
Visibilité: 4000 m
brume
Evoluant progressivement
du 08 à 01 UTC au 08 à 02 UTC
Visibilité: 6000 m

TAF: VVNB 071700Z 0718/0818 11007KT 6000 SCT025 BECMG 0722/0723 4000 BR BECMG 0801/0802 6000 NSW

Observations et prévisions météorologiques de plus de 4000 aéroports (messages METAR et TAF).

Les stations disponibles sont représentées par des disques jaunes et rouges sur la carte.

Passer la souris dessus pour voir le nom de la station.

Cliquer dessus pour voir les observations et prévisions météorologiques.

Pour changer de carte: cliquez sur les boutons verts avec une croix noire pour zoomer, sur le bouton vert avec un tiret pour effectuer un zoom arrière, ou sur les flèches vertes pour les cartes adjacentes.


METAR-TAF: